createdAt,value
2019-04-10T04:42:03.204Z,88.20
2019-04-10T05:11:27.218Z,1.00
2019-04-10T05:14:02.767Z,1.00
2019-04-10T05:16:33.066Z,1.00
2019-04-10T05:19:03.769Z,1.00
2019-04-10T05:21:35.029Z,1.00
2019-04-10T05:24:07.437Z,1.00
2019-04-10T05:26:37.431Z,1.00
2019-04-10T05:29:07.207Z,1.00
2019-04-10T05:31:38.806Z,1.00
2019-04-10T05:34:09.338Z,1.00
2019-04-10T05:36:46.988Z,1.00
2019-04-10T05:39:19.556Z,1.00
2019-04-10T05:41:52.453Z,1.00
2019-04-10T05:44:23.687Z,1.00
2019-04-10T05:47:59.076Z,1.00
2019-04-10T05:50:29.914Z,1.00
2019-04-10T05:53:00.420Z,1.00
2019-04-10T05:55:30.960Z,1.00
2019-04-10T05:58:01.667Z,1.00
2019-04-10T06:00:32.642Z,1.00
2019-04-10T06:03:03.940Z,1.00
2019-04-10T06:05:34.160Z,1.00
2019-04-10T06:08:04.299Z,1.00
2019-04-10T06:10:34.309Z,1.00
2019-04-10T06:13:04.721Z,1.00
2019-04-10T06:15:35.057Z,1.00
2019-04-10T06:18:05.245Z,99.90
2019-04-10T06:20:35.448Z,99.90
2019-04-10T06:23:05.436Z,99.90
2019-04-10T06:25:38.012Z,99.90
2019-04-10T06:28:07.349Z,99.90
2019-04-10T06:30:37.297Z,99.90
2019-04-10T06:33:07.550Z,99.90
2019-04-10T06:35:37.733Z,1.00
2019-04-10T06:38:08.139Z,99.90
2019-04-10T06:40:38.106Z,99.90
2019-04-10T06:43:08.604Z,99.90
2019-04-10T06:45:38.618Z,74.60
2019-04-10T06:48:10.928Z,56.30
2019-04-10T06:50:41.282Z,99.90
2019-04-10T06:53:11.431Z,99.90
2019-04-10T06:55:41.421Z,99.90
2019-04-10T06:58:12.386Z,99.90
2019-04-10T07:00:46.625Z,99.90
2019-04-10T07:03:14.872Z,99.90
2019-04-10T07:06:00.449Z,99.90
2019-04-10T07:08:19.499Z,46.30
2019-04-10T07:10:55.424Z,2.00
2019-04-10T07:13:19.754Z,1.00
2019-04-10T07:15:49.884Z,1.00
2019-04-10T07:18:29.998Z,1.00
2019-04-10T07:21:20.368Z,1.00
2019-04-10T07:23:50.344Z,1.00
2019-04-10T07:26:33.260Z,1.00
2019-04-10T07:28:53.371Z,1.00
2019-04-10T07:31:23.840Z,1.00
2019-04-10T07:33:54.857Z,1.00
2019-04-10T07:36:24.766Z,1.00
2019-04-10T07:38:57.287Z,1.00
2019-04-10T07:41:26.825Z,1.00
2019-04-10T07:43:58.009Z,99.90
2019-04-10T07:46:31.191Z,99.90
2019-04-10T07:49:00.708Z,99.90
2019-04-10T07:51:31.815Z,99.90
2019-04-10T07:54:01.961Z,99.90
2019-04-10T07:56:31.778Z,99.90
2019-04-10T07:59:02.701Z,99.90
2019-04-10T08:01:33.448Z,99.90
2019-04-10T08:04:04.182Z,99.90
2019-04-10T08:06:35.235Z,99.90
2019-04-10T08:09:08.361Z,99.90
2019-04-10T08:11:40.838Z,99.90
2019-04-10T08:14:10.887Z,99.90
2019-04-10T08:16:43.978Z,99.90
2019-04-10T08:19:32.807Z,99.90
2019-04-10T08:22:06.197Z,99.90
2019-04-10T08:24:38.455Z,99.90
2019-04-10T08:27:10.264Z,91.20
2019-04-10T08:29:42.758Z,88.50
2019-04-10T08:32:13.905Z,79.10
2019-04-10T08:34:46.445Z,64.40
2019-04-10T08:37:17.233Z,47.50
2019-04-10T08:39:49.157Z,37.70
2019-04-10T08:42:18.916Z,34.70
2019-04-10T08:44:49.024Z,29.10
2019-04-10T08:47:19.366Z,27.10
2019-04-10T08:49:50.799Z,26.00
2019-04-10T08:52:20.732Z,20.70
2019-04-10T08:54:53.204Z,16.90
2019-04-10T08:57:23.160Z,14.20
2019-04-10T08:59:54.108Z,7.60
2019-04-10T09:02:24.404Z,12.50
2019-04-10T09:04:57.345Z,1.10
2019-04-10T09:07:28.321Z,1.00
2019-04-10T09:09:58.324Z,1.00
2019-04-10T09:12:29.492Z,1.00
2019-04-10T09:14:59.644Z,1.00
2019-04-10T09:17:29.703Z,1.00
2019-04-10T09:20:00.577Z,1.00
2019-04-10T09:22:49.065Z,1.00
2019-04-10T09:25:02.859Z,1.00
2019-04-10T09:27:33.671Z,1.00
2019-04-10T09:30:04.627Z,1.00
2019-04-10T09:32:34.713Z,1.00
2019-04-10T09:35:04.711Z,1.00
2019-04-10T09:37:34.717Z,1.00
2019-04-10T09:40:05.622Z,1.00
2019-04-10T09:42:37.955Z,1.00
2019-04-10T09:45:11.444Z,1.00
2019-04-10T09:47:40.055Z,1.00
2019-04-10T09:50:10.516Z,1.00
2019-04-10T09:52:40.760Z,1.00
2019-04-10T09:55:12.300Z,1.00
2019-04-10T09:57:45.062Z,1.00
2019-04-10T10:00:15.669Z,1.00
2019-04-10T10:02:45.519Z,1.00
2019-04-10T10:05:21.265Z,1.00
2019-04-10T10:08:12.494Z,1.00
2019-04-10T10:12:09.514Z,1.00
